createdAt,value
2022-08-22T00:00:04.671Z,32.51
2022-08-22T00:02:31.285Z,32.51
2022-08-22T00:02:53.142Z,32.75
2022-08-22T00:03:02.383Z,32.86
2022-08-22T00:04:58.567Z,33.04
2022-08-22T00:07:24.999Z,32.73
2022-08-22T00:09:51.398Z,32.56
2022-08-22T00:12:17.788Z,32.57
2022-08-22T00:14:44.226Z,32.56
2022-08-22T00:17:10.601Z,32.57
2022-08-22T00:19:36.979Z,32.60
2022-08-22T00:22:03.400Z,32.57
2022-08-22T00:24:29.793Z,32.54
2022-08-22T00:26:56.158Z,32.52
2022-08-22T00:29:22.593Z,32.59
2022-08-22T00:31:48.973Z,32.58
2022-08-22T00:34:15.362Z,32.52
2022-08-22T00:36:41.795Z,32.54
2022-08-22T00:39:14.002Z,32.54
2022-08-22T00:41:40.379Z,32.51
2022-08-22T00:44:06.941Z,32.62
2022-08-22T00:46:33.333Z,33.15
2022-08-22T00:48:59.707Z,32.72
2022-08-22T00:51:26.136Z,32.57
2022-08-22T00:53:52.495Z,32.55
2022-08-22T00:56:18.869Z,32.57
2022-08-22T00:58:45.361Z,32.54
2022-08-22T01:01:11.801Z,32.52
2022-08-22T01:03:38.240Z,32.49
2022-08-22T01:06:04.709Z,32.49
2022-08-22T01:08:31.139Z,32.42
2022-08-22T01:10:57.598Z,32.37
2022-08-22T01:13:24.044Z,32.38
2022-08-22T01:15:50.447Z,32.32
2022-08-22T01:18:16.836Z,32.32
2022-08-22T01:20:43.394Z,32.35
2022-08-22T01:23:09.763Z,32.60
2022-08-22T01:25:36.134Z,32.63
2022-08-22T01:28:02.744Z,32.33
2022-08-22T01:30:29.132Z,32.31
2022-08-22T01:32:57.029Z,32.29
2022-08-22T01:35:23.798Z,32.20
2022-08-22T01:37:50.190Z,32.25
2022-08-22T01:40:16.701Z,32.27
2022-08-22T01:42:43.179Z,32.25
2022-08-22T01:45:09.562Z,32.27
2022-08-22T01:47:37.376Z,32.22
2022-08-22T01:50:04.380Z,32.15
2022-08-22T01:52:30.766Z,32.17
2022-08-22T01:54:57.167Z,32.22
2022-08-22T01:57:23.608Z,32.15
2022-08-22T01:59:50.018Z,32.11
2022-08-22T02:02:16.417Z,32.43
2022-08-22T02:04:43.027Z,32.38
2022-08-22T02:07:09.432Z,32.19
2022-08-22T02:09:35.815Z,32.15
2022-08-22T02:12:02.245Z,32.16
2022-08-22T02:14:30.479Z,32.10
2022-08-22T02:16:56.871Z,32.07
2022-08-22T02:19:23.405Z,32.12
2022-08-22T02:21:49.798Z,32.07
2022-08-22T02:24:16.170Z,32.08
2022-08-22T02:26:42.587Z,32.12
2022-08-22T02:29:08.998Z,32.13
2022-08-22T02:31:35.413Z,32.14
2022-08-22T02:34:01.865Z,32.11
2022-08-22T02:36:28.231Z,32.10
2022-08-22T02:38:54.612Z,32.11
2022-08-22T02:41:21.014Z,32.59
2022-08-22T02:43:47.394Z,32.11
2022-08-22T02:46:16.128Z,32.09
2022-08-22T02:48:42.600Z,32.03
2022-08-22T02:51:08.976Z,32.06
2022-08-22T02:53:35.380Z,32.06
2022-08-22T02:56:01.814Z,32.06
2022-08-22T02:58:28.230Z,32.06
2022-08-22T03:00:54.657Z,31.96
2022-08-22T03:03:21.134Z,31.99
2022-08-22T03:05:48.540Z,31.99
2022-08-22T03:08:14.921Z,31.99
2022-08-22T03:10:41.373Z,31.92
2022-08-22T03:13:07.762Z,31.90
2022-08-22T03:15:34.138Z,31.90
2022-08-22T03:18:00.715Z,32.34
2022-08-22T03:20:27.315Z,32.07
2022-08-22T03:22:53.695Z,31.93
2022-08-22T03:25:20.234Z,31.99
2022-08-22T03:27:49.937Z,31.93
2022-08-22T03:30:16.497Z,31.95
2022-08-22T03:32:42.903Z,31.94
2022-08-22T03:35:09.298Z,31.93
2022-08-22T03:37:35.679Z,31.89
2022-08-22T03:40:02.208Z,31.93
2022-08-22T03:42:28.592Z,31.88
2022-08-22T03:44:55.041Z,31.85
2022-08-22T03:47:21.460Z,31.87
2022-08-22T03:49:47.859Z,31.87
2022-08-22T03:52:14.241Z,31.84
2022-08-22T03:54:40.673Z,32.15
2022-08-22T03:57:07.211Z,32.12
2022-08-22T03:59:33.603Z,31.93
2022-08-22T04:02:01.721Z,31.90
2022-08-22T04:04:28.239Z,31.87
2022-08-22T04:06:56.424Z,31.84
2022-08-22T04:09:23.048Z,31.86
2022-08-22T04:11:49.811Z,31.84
2022-08-22T04:14:18.455Z,31.81
2022-08-22T04:16:44.895Z,31.77
2022-08-22T04:19:11.270Z,31.76
2022-08-22T04:21:37.644Z,31.77
2022-08-22T04:24:04.259Z,31.76
2022-08-22T04:26:30.640Z,31.74
2022-08-22T04:28:57.032Z,31.72
2022-08-22T04:31:23.489Z,31.85
2022-08-22T04:33:49.874Z,32.32
2022-08-22T04:36:16.368Z,31.89
2022-08-22T04:38:42.903Z,31.80
2022-08-22T04:41:09.326Z,31.80
2022-08-22T04:43:35.713Z,31.81
2022-08-22T04:46:02.127Z,31.79
2022-08-22T04:48:28.513Z,31.79
2022-08-22T04:50:54.902Z,31.73
2022-08-22T04:53:21.469Z,31.78
2022-08-22T04:55:47.881Z,31.77
2022-08-22T04:58:14.268Z,31.75
2022-08-22T05:00:40.993Z,31.76
2022-08-22T05:03:07.404Z,31.74
2022-08-22T05:05:33.774Z,31.77
2022-08-22T05:08:00.557Z,32.02
2022-08-22T05:10:27.161Z,32.03
2022-08-22T05:12:53.534Z,31.77
2022-08-22T05:15:23.064Z,31.71
2022-08-22T05:17:49.921Z,31.79
2022-08-22T05:20:16.386Z,31.74
2022-08-22T05:22:42.810Z,31.78
2022-08-22T05:25:09.219Z,31.72
2022-08-22T05:27:35.605Z,31.78
2022-08-22T05:30:02.091Z,31.77
2022-08-22T05:32:28.466Z,31.79
2022-08-22T05:34:54.848Z,31.80
2022-08-22T05:37:21.316Z,31.83
2022-08-22T05:39:47.762Z,31.77
2022-08-22T05:42:14.200Z,31.93
2022-08-22T05:44:40.692Z,32.25
2022-08-22T05:47:07.119Z,31.81
2022-08-22T05:49:33.495Z,31.79
2022-08-22T05:51:59.944Z,31.80
2022-08-22T05:54:34.240Z,31.73
2022-08-22T05:57:03.899Z,31.69
2022-08-22T05:59:32.500Z,31.59
2022-08-22T06:01:59.037Z,31.55
2022-08-22T06:04:25.506Z,31.53
2022-08-22T06:06:51.985Z,31.51
2022-08-22T06:09:18.376Z,31.49
2022-08-22T06:11:44.879Z,31.54
2022-08-22T06:14:18.506Z,31.51
2022-08-22T06:16:51.202Z,31.89
2022-08-22T06:19:19.463Z,31.63
2022-08-22T06:21:46.496Z,31.52
2022-08-22T06:24:13.770Z,31.49
2022-08-22T06:26:40.185Z,31.41
2022-08-22T06:29:06.598Z,31.42
2022-08-22T06:31:33.142Z,31.40
2022-08-22T06:33:59.582Z,31.40
2022-08-22T06:36:25.974Z,31.36
2022-08-22T06:38:52.535Z,31.38
2022-08-22T06:41:18.937Z,31.39
2022-08-22T06:43:45.351Z,31.39
2022-08-22T06:46:11.819Z,31.41
2022-08-22T06:48:38.230Z,31.83
2022-08-22T06:51:04.686Z,31.49
2022-08-22T06:53:31.134Z,31.39
2022-08-22T06:55:57.530Z,31.38
2022-08-22T06:58:23.999Z,31.38
2022-08-22T07:01:05.151Z,31.38
2022-08-22T07:03:38.440Z,31.43
2022-08-22T07:06:04.929Z,31.42
2022-08-22T07:08:33.209Z,31.39
2022-08-22T07:11:02.431Z,31.36
2022-08-22T07:13:28.862Z,31.37
2022-08-22T07:15:56.344Z,31.36
2022-08-22T07:18:22.810Z,31.46
2022-08-22T07:20:49.229Z,31.86
2022-08-22T07:23:15.640Z,31.45
2022-08-22T07:25:42.036Z,31.40
2022-08-22T07:28:08.489Z,31.40
2022-08-22T07:30:42.250Z,31.40
2022-08-22T07:33:24.911Z,31.38
2022-08-22T07:35:53.880Z,31.32
2022-08-22T07:38:20.350Z,31.29
2022-08-22T07:40:46.735Z,31.30
2022-08-22T07:43:13.138Z,31.30
2022-08-22T07:45:39.566Z,31.26
2022-08-22T07:48:05.951Z,31.28
2022-08-22T07:50:32.397Z,31.42
2022-08-22T07:52:58.847Z,31.81
2022-08-22T07:55:25.238Z,31.43
2022-08-22T07:57:51.654Z,31.38
2022-08-22T08:00:18.133Z,31.39
2022-08-22T08:02:44.530Z,31.35
2022-08-22T08:05:10.916Z,31.31
2022-08-22T08:07:37.348Z,31.31
2022-08-22T08:10:03.724Z,31.29
2022-08-22T08:12:30.219Z,31.32
2022-08-22T08:14:56.656Z,31.41
2022-08-22T08:17:23.048Z,31.46
2022-08-22T08:19:49.429Z,31.48
2022-08-22T08:22:15.872Z,31.61
2022-08-22T08:24:43.810Z,31.86
2022-08-22T08:27:11.248Z,31.56
2022-08-22T08:29:37.688Z,31.49
2022-08-22T08:32:04.059Z,31.53
2022-08-22T08:34:30.443Z,31.51
2022-08-22T08:37:00.889Z,31.52
2022-08-22T08:39:28.564Z,31.54
2022-08-22T08:42:01.862Z,31.54
2022-08-22T08:44:28.280Z,31.56
2022-08-22T08:46:55.919Z,31.62
2022-08-22T08:49:23.996Z,31.61
2022-08-22T08:51:50.656Z,31.61
2022-08-22T08:54:17.057Z,31.93
2022-08-22T08:59:30.324Z,31.64
2022-08-22T09:01:57.118Z,31.60
2022-08-22T09:04:27.263Z,31.58
2022-08-22T09:06:56.714Z,31.59
2022-08-22T09:09:27.554Z,31.60
2022-08-22T09:11:56.126Z,31.62
2022-08-22T09:14:22.581Z,31.65
2022-08-22T09:16:52.711Z,31.65
2022-08-22T09:19:19.103Z,31.63
2022-08-22T09:21:45.489Z,31.66
2022-08-22T09:24:12.795Z,31.76
2022-08-22T09:26:40.570Z,32.16
2022-08-22T09:29:06.961Z,31.77
2022-08-22T09:31:48.279Z,31.73
2022-08-22T09:34:23.979Z,31.87
2022-08-22T09:36:52.011Z,31.89
2022-08-22T09:39:18.410Z,31.92
2022-08-22T09:41:46.692Z,31.89
2022-08-22T09:44:18.253Z,31.87
2022-08-22T09:46:44.699Z,31.87
2022-08-22T09:49:12.154Z,31.88
2022-08-22T09:51:38.640Z,31.86
2022-08-22T09:54:05.340Z,31.85
2022-08-22T09:56:31.749Z,31.86
2022-08-22T09:58:58.289Z,32.21
2022-08-22T10:01:24.765Z,31.98
2022-08-22T10:03:51.173Z,31.97
2022-08-22T10:06:20.011Z,31.89
2022-08-22T10:08:47.292Z,31.88
2022-08-22T10:11:14.511Z,31.81
2022-08-22T10:13:41.289Z,31.83
2022-08-22T10:16:08.317Z,31.86
2022-08-22T10:18:36.874Z,31.90
2022-08-22T10:21:10.562Z,31.89
2022-08-22T10:23:36.991Z,31.92
2022-08-22T10:26:03.393Z,31.98
2022-08-22T10:28:29.934Z,32.00
2022-08-22T10:30:56.361Z,32.15
2022-08-22T10:33:23.499Z,32.38
2022-08-22T10:35:49.947Z,32.07
2022-08-22T10:38:16.336Z,32.00
2022-08-22T10:40:43.413Z,32.04
2022-08-22T10:43:14.228Z,32.01
2022-08-22T10:45:40.650Z,32.04
2022-08-22T10:48:08.812Z,32.07
2022-08-22T10:50:36.493Z,32.06
2022-08-22T10:53:02.990Z,32.05
2022-08-22T10:55:31.213Z,31.98
2022-08-22T10:57:57.992Z,31.93
2022-08-22T11:00:25.606Z,31.96
2022-08-22T11:02:53.144Z,32.00
2022-08-22T11:05:19.781Z,32.20
2022-08-22T11:07:48.893Z,32.28
2022-08-22T11:10:16.785Z,32.05
2022-08-22T11:12:44.839Z,32.01
2022-08-22T11:15:11.315Z,32.01
2022-08-22T11:17:41.656Z,32.04
2022-08-22T11:20:09.203Z,32.06
2022-08-22T11:22:36.050Z,32.06
2022-08-22T11:25:04.395Z,32.00
2022-08-22T11:27:34.440Z,31.99
2022-08-22T11:30:06.489Z,31.99
2022-08-22T11:32:32.956Z,31.97
2022-08-22T11:34:59.333Z,32.01
2022-08-22T11:37:31.695Z,31.91
2022-08-22T11:40:11.987Z,31.90
2022-08-22T11:42:38.516Z,32.29
2022-08-22T11:45:16.829Z,32.04
2022-08-22T11:47:43.307Z,31.96
2022-08-22T11:50:13.272Z,32.01
2022-08-22T11:52:40.368Z,31.98
2022-08-22T11:55:09.086Z,31.95
2022-08-22T11:57:36.489Z,31.95
2022-08-22T12:00:04.598Z,31.92
2022-08-22T12:02:31.145Z,31.95
2022-08-22T12:04:57.702Z,31.89
2022-08-22T12:07:24.170Z,31.96
2022-08-22T12:09:50.805Z,32.01
2022-08-22T12:12:18.126Z,32.00
2022-08-22T12:14:44.707Z,31.94
2022-08-22T12:17:11.125Z,32.19
2022-08-22T12:20:12.723Z,32.19
2022-08-22T12:22:34.094Z,31.91
2022-08-22T12:25:02.885Z,31.94
2022-08-22T12:27:29.713Z,31.96
2022-08-22T12:29:56.160Z,31.97
2022-08-22T12:32:27.683Z,31.95
2022-08-22T12:34:54.346Z,31.95
2022-08-22T12:37:20.754Z,31.89
2022-08-22T12:39:49.117Z,31.85
2022-08-22T12:42:15.566Z,31.83
2022-08-22T12:44:42.362Z,31.83
2022-08-22T12:47:09.349Z,31.79
2022-08-22T12:49:36.061Z,31.80
2022-08-22T12:52:04.236Z,31.80
2022-08-22T12:54:31.466Z,31.78
2022-08-22T12:56:57.906Z,32.22
2022-08-22T12:59:25.114Z,32.01
2022-08-22T13:01:51.816Z,31.96
2022-08-22T13:04:19.335Z,31.93
2022-08-22T13:07:00.195Z,31.88
2022-08-22T13:09:28.919Z,31.84
2022-08-22T13:11:58.089Z,31.85
2022-08-22T13:14:25.983Z,31.88
2022-08-22T13:16:52.509Z,31.83
2022-08-22T13:19:18.901Z,31.79
2022-08-22T13:21:45.333Z,31.77
2022-08-22T13:24:17.004Z,31.77
2022-08-22T13:26:49.322Z,31.77
2022-08-22T13:29:25.733Z,31.84
2022-08-22T13:31:53.116Z,32.19
2022-08-22T13:34:22.889Z,32.02
2022-08-22T13:36:51.874Z,31.90
2022-08-22T13:39:19.706Z,31.89
2022-08-22T13:41:46.128Z,31.79
2022-08-22T13:44:13.870Z,31.84
2022-08-22T13:47:10.861Z,31.87
2022-08-22T13:49:28.300Z,31.78
2022-08-22T13:51:54.724Z,31.77
2022-08-22T13:54:22.683Z,31.71
2022-08-22T13:56:50.443Z,31.69
2022-08-22T13:59:40.074Z,31.72
2022-08-22T14:02:03.709Z,31.68
2022-08-22T14:04:34.883Z,31.71
2022-08-22T14:07:02.890Z,31.67
2022-08-22T14:09:32.022Z,31.89
2022-08-22T14:11:59.203Z,32.10
2022-08-22T14:14:25.621Z,31.77
2022-08-22T14:16:52.935Z,31.70
2022-08-22T14:19:19.411Z,31.72
2022-08-22T14:21:45.860Z,31.69
2022-08-22T14:24:12.251Z,31.73
2022-08-22T14:26:47.221Z,31.66
2022-08-22T14:29:14.366Z,31.63
2022-08-22T14:31:40.813Z,31.61
2022-08-22T14:34:08.681Z,31.61
2022-08-22T14:36:35.142Z,31.61
2022-08-22T14:39:03.879Z,31.60
2022-08-22T14:41:55.532Z,31.59
2022-08-22T14:44:16.948Z,31.59
2022-08-22T14:46:43.452Z,31.57
2022-08-22T14:49:11.144Z,31.75
2022-08-22T14:51:39.566Z,32.14
2022-08-22T14:54:06.873Z,31.80
2022-08-22T14:56:33.263Z,31.75
2022-08-22T14:59:02.100Z,31.65
2022-08-22T15:01:29.958Z,31.67
2022-08-22T15:03:59.514Z,31.67
2022-08-22T15:06:28.029Z,31.68
2022-08-22T15:08:54.729Z,31.69
2022-08-22T15:11:21.128Z,31.64
2022-08-22T15:13:47.617Z,31.61
2022-08-22T15:16:14.045Z,31.66
2022-08-22T15:18:51.494Z,31.64
2022-08-22T15:21:18.607Z,31.58
2022-08-22T15:23:46.765Z,31.59
2022-08-22T15:26:13.858Z,32.02
2022-08-22T15:28:52.558Z,31.85
2022-08-22T15:31:19.712Z,31.65
2022-08-22T15:33:46.181Z,31.68
2022-08-22T15:36:12.630Z,31.71
2022-08-22T15:38:42.347Z,31.66
2022-08-22T15:41:14.714Z,31.61
2022-08-22T15:43:41.536Z,31.57
2022-08-22T15:46:09.835Z,31.58
2022-08-22T15:48:44.223Z,31.55
2022-08-22T15:51:15.593Z,31.55
2022-08-22T15:53:41.982Z,31.60
2022-08-22T15:56:08.554Z,31.55
2022-08-22T15:58:34.927Z,31.53
2022-08-22T16:01:01.466Z,31.54
2022-08-22T16:03:28.555Z,32.02
2022-08-22T16:05:55.808Z,31.80
2022-08-22T16:08:22.340Z,31.70
2022-08-22T16:10:48.814Z,31.63
2022-08-22T16:13:15.216Z,31.60
2022-08-22T16:15:41.619Z,31.56
2022-08-22T16:18:08.051Z,31.51
2022-08-22T16:20:34.442Z,31.53
2022-08-22T16:23:00.885Z,31.52
2022-08-22T16:25:27.328Z,31.50
2022-08-22T16:27:53.789Z,31.47
2022-08-22T16:30:20.276Z,31.50
2022-08-22T16:32:46.730Z,31.59
2022-08-22T16:35:13.112Z,31.63
2022-08-22T16:37:39.504Z,32.24
2022-08-22T16:40:06.149Z,31.86
2022-08-22T16:42:32.603Z,31.77
2022-08-22T16:44:59.115Z,31.69
2022-08-22T16:47:25.539Z,31.65
2022-08-22T16:49:51.941Z,31.68
2022-08-22T16:52:18.329Z,31.67
2022-08-22T16:54:44.761Z,31.64
2022-08-22T16:57:11.142Z,31.64
2022-08-22T16:59:41.054Z,31.65
2022-08-22T17:02:07.498Z,31.64
2022-08-22T17:04:33.871Z,31.63
2022-08-22T17:07:00.278Z,31.63
2022-08-22T17:09:26.801Z,31.60
2022-08-22T17:11:53.190Z,31.61
2022-08-22T17:14:19.585Z,32.11
2022-08-22T17:16:47.264Z,31.94
2022-08-22T17:19:15.149Z,31.73
2022-08-22T17:21:41.682Z,31.67
2022-08-22T17:24:32.240Z,31.67
2022-08-22T17:27:00.288Z,31.65
2022-08-22T17:29:26.742Z,31.64
2022-08-22T17:31:53.155Z,31.60
2022-08-22T17:34:19.573Z,31.57
2022-08-22T17:36:46.003Z,31.59
2022-08-22T17:39:12.482Z,31.57
2022-08-22T17:41:38.871Z,31.58
2022-08-22T17:44:05.314Z,31.56
2022-08-22T17:46:31.706Z,31.57
2022-08-22T17:48:58.099Z,31.57
2022-08-22T17:51:28.505Z,31.73
2022-08-22T17:53:55.110Z,32.24
2022-08-22T17:56:21.507Z,31.79
2022-08-22T17:58:47.963Z,31.68
2022-08-22T18:01:14.392Z,31.65
2022-08-22T18:03:40.834Z,31.68
2022-08-22T18:06:07.256Z,31.65
2022-08-22T18:11:20.050Z,31.66
2022-08-22T18:13:46.505Z,31.69
2022-08-22T18:16:12.954Z,31.71
2022-08-22T18:18:39.384Z,31.67
2022-08-22T18:21:05.806Z,31.69
2022-08-22T18:23:35.577Z,31.70
2022-08-22T18:26:02.830Z,31.71
2022-08-22T18:28:29.282Z,31.69
2022-08-22T18:30:55.717Z,31.72
2022-08-22T18:33:22.460Z,32.07
2022-08-22T18:35:49.815Z,32.17
2022-08-22T18:38:20.480Z,31.88
2022-08-22T18:40:50.056Z,31.83
2022-08-22T18:43:16.825Z,31.78
2022-08-22T18:45:44.185Z,31.76
2022-08-22T18:48:11.052Z,31.76
2022-08-22T18:50:37.435Z,31.76
2022-08-22T18:53:03.822Z,31.76
2022-08-22T18:55:30.273Z,31.73
2022-08-22T18:57:56.654Z,31.74
2022-08-22T19:00:23.045Z,31.70
2022-08-22T19:02:57.336Z,31.73
2022-08-22T19:05:23.754Z,31.73
2022-08-22T19:07:50.186Z,31.76
2022-08-22T19:10:16.576Z,31.73
2022-08-22T19:12:42.974Z,31.80
2022-08-22T19:15:09.409Z,32.43
2022-08-22T19:17:35.857Z,31.98
2022-08-22T19:20:02.248Z,31.86
2022-08-22T19:22:28.791Z,31.82
2022-08-22T19:24:55.183Z,31.81
2022-08-22T19:27:21.561Z,31.78
2022-08-22T19:29:48.012Z,31.77
2022-08-22T19:32:14.448Z,31.76
2022-08-22T19:34:40.855Z,31.77
2022-08-22T19:37:07.434Z,31.77
2022-08-22T19:39:35.897Z,31.76
2022-08-22T19:42:02.306Z,31.75
2022-08-22T19:44:28.962Z,31.75
2022-08-22T19:46:55.394Z,31.77
2022-08-22T19:49:21.858Z,31.78
2022-08-22T19:51:48.393Z,31.82
2022-08-22T19:54:16.730Z,32.10
2022-08-22T19:56:43.354Z,32.40
2022-08-22T19:59:09.776Z,32.01
2022-08-22T20:01:36.247Z,31.92
2022-08-22T20:04:02.702Z,31.85
2022-08-22T20:06:43.479Z,31.84
2022-08-22T20:09:10.920Z,31.82
2022-08-22T20:11:37.355Z,31.78
2022-08-22T20:14:03.746Z,31.76
2022-08-22T20:16:30.142Z,31.77
2022-08-22T20:19:06.480Z,31.79
2022-08-22T20:21:38.824Z,31.77
2022-08-22T20:24:05.699Z,31.77
2022-08-22T20:26:32.098Z,31.76
2022-08-22T20:28:58.487Z,31.74
2022-08-22T20:31:24.937Z,31.77
2022-08-22T20:33:51.318Z,31.76
2022-08-22T20:36:28.507Z,32.28
2022-08-22T20:38:56.239Z,32.07
2022-08-22T20:41:22.756Z,31.89
2022-08-22T20:43:49.207Z,31.83
2022-08-22T20:46:15.925Z,31.81
2022-08-22T20:48:42.367Z,31.79
2022-08-22T20:51:08.826Z,31.81
2022-08-22T20:53:35.314Z,31.82
2022-08-22T20:56:01.716Z,31.80
2022-08-22T20:58:28.181Z,31.78
2022-08-22T21:00:54.736Z,31.78
2022-08-22T21:03:21.148Z,31.76
2022-08-22T21:05:47.539Z,31.73
2022-08-22T21:08:14.014Z,31.71
2022-08-22T21:10:40.405Z,31.73
2022-08-22T21:13:06.817Z,31.73
2022-08-22T21:15:33.362Z,31.94
2022-08-22T21:17:59.884Z,32.43
2022-08-22T21:20:26.346Z,31.95
2022-08-22T21:22:52.814Z,31.87
2022-08-22T21:25:19.188Z,31.82
2022-08-22T21:27:45.588Z,31.78
2022-08-22T21:30:12.059Z,31.77
2022-08-22T21:32:38.454Z,31.75
2022-08-22T21:35:04.828Z,31.75
2022-08-22T21:37:31.309Z,31.73
2022-08-22T21:39:57.752Z,31.73
2022-08-22T21:42:24.160Z,31.72
2022-08-22T21:44:50.627Z,31.73
2022-08-22T21:47:17.192Z,31.72
2022-08-22T21:49:45.749Z,31.71
2022-08-22T21:52:12.194Z,31.71
2022-08-22T21:54:40.946Z,31.75
2022-08-22T21:57:07.371Z,32.29
2022-08-22T21:59:51.151Z,32.11
2022-08-22T22:02:20.258Z,31.91
2022-08-22T22:04:46.776Z,31.84
2022-08-22T22:07:13.380Z,31.81
2022-08-22T22:09:42.002Z,31.77
2022-08-22T22:12:19.414Z,31.73
2022-08-22T22:14:45.808Z,31.73
2022-08-22T22:17:12.187Z,31.70
2022-08-22T22:19:38.736Z,31.69
2022-08-22T22:22:05.129Z,31.64
2022-08-22T22:24:31.653Z,31.64
2022-08-22T22:26:58.309Z,31.66
2022-08-22T22:29:24.697Z,31.66
2022-08-22T22:31:51.140Z,31.64
2022-08-22T22:34:17.709Z,31.63
2022-08-22T22:36:44.081Z,32.08
2022-08-22T22:39:10.464Z,32.07
2022-08-22T22:41:36.964Z,31.83
2022-08-22T22:44:03.375Z,31.77
2022-08-22T22:46:29.772Z,31.78
2022-08-22T22:48:56.191Z,31.70
2022-08-22T22:51:22.598Z,31.67
2022-08-22T22:53:48.971Z,31.67
2022-08-22T22:56:16.042Z,31.68
2022-08-22T22:58:42.512Z,31.67
2022-08-22T23:01:09.348Z,31.69
2022-08-22T23:03:35.857Z,31.65
2022-08-22T23:06:02.227Z,31.63
2022-08-22T23:08:28.607Z,31.64
2022-08-22T23:10:55.133Z,31.64
2022-08-22T23:13:21.540Z,31.65
2022-08-22T23:15:47.918Z,32.29
2022-08-22T23:18:14.510Z,31.88
2022-08-22T23:20:40.906Z,31.77
2022-08-22T23:23:07.293Z,31.68
2022-08-22T23:25:33.788Z,31.65
2022-08-22T23:28:00.443Z,31.62
2022-08-22T23:30:26.989Z,31.59
2022-08-22T23:32:53.468Z,31.57
2022-08-22T23:35:19.856Z,31.60
2022-08-22T23:37:46.243Z,31.57
2022-08-22T23:40:12.719Z,31.56
2022-08-22T23:42:39.198Z,31.57
2022-08-22T23:45:05.627Z,31.57
2022-08-22T23:47:32.118Z,31.55
2022-08-22T23:49:58.503Z,31.56
2022-08-22T23:52:29.377Z,31.68
2022-08-22T23:54:55.957Z,32.31
2022-08-22T23:57:27.756Z,31.84
2022-08-22T23:59:58.297Z,31.72
